• Join FlightAware (Why Join?)
  • Login
  • US Flag 
02:49AM EST


 

Airport Tracker/Info


-or-


 

Live Flight TrackerFlight Track Log ✈ N83WD ✈ 11-May-2014 ✈ KLUK - KDTN

Flight Track Log - Related Links

Times and Time Zones

All times are in EDT time to prevent confusion due to time zone crossing. See the N83WD flight status page for this flight to view local times or setup timezone preferences in your user account.

Time Position Orientation Groundspeed Altitude Reporting Facility
EDT Latitude Longitude Course Direction KTS MPH feet Rate Location/Type
09:25AM 39.0667 -84.4333 201° Southwest 170 196 1,000  Level Cincinnati TRACON
09:26AM 39.0333 -84.4500 201° Southwest 177 204 1,800 850 Climbing Cincinnati TRACON
09:27AM 38.9833 -84.4833 207° Southwest 181 208 2,700 950 Climbing Cincinnati TRACON
09:28AM 38.9500 -84.5167 218° Southwest 177 204 3,700 909 Climbing Cincinnati TRACON
09:29AM 38.9256 -84.5469 224° Southwest 130 150 4,200 832 Climbing Indianapolis Center
09:30AM 38.8897 -84.5794 215° Southwest 155 178 5,100 927 Climbing Indianapolis Center
09:31AM 38.8547 -84.6097 214° Southwest 157 181 6,100 927 Climbing Indianapolis Center
09:32AM 38.8225 -84.6389 215° Southwest 150 173 7,000 829 Climbing Indianapolis Center
09:33AM 38.7914 -84.6694 217° Southwest 147 169 7,800 934 Climbing Indianapolis Center
09:34AM 38.7567 -84.7111 223° Southwest 145 167 8,900 878 Climbing Indianapolis Center
09:35AM 38.7269 -84.7419 219° Southwest 144 166 9,600 780 Climbing Indianapolis Center
09:36AM 38.6964 -84.7739 219° Southwest 141 162 10,500 829 Climbing Indianapolis Center
09:37AM 38.6653 -84.8056 218° Southwest 142 163 11,300 829 Climbing Indianapolis Center
09:38AM 38.6322 -84.8378 217° Southwest 141 162 12,200 878 Climbing Indianapolis Center
09:39AM 38.6000 -84.8675 216° Southwest 142 163 13,100 976 Climbing Indianapolis Center
09:40AM 38.5733 -84.9097 231° Southwest 145 167 14,200 927 Climbing Indianapolis Center
09:41AM 38.5486 -84.9486 231° Southwest 146 168 15,000 732 Climbing Indianapolis Center
09:42AM 38.5231 -84.9903 232° Southwest 146 168 15,700 634 Climbing Indianapolis Center
09:43AM 38.4978 -85.0342 234° Southwest 148 170 16,300 634 Climbing Indianapolis Center
09:44AM 38.4675 -85.0903 235° Southwest 159 183 17,000 683 Climbing Indianapolis Center
09:46AM 38.4367 -85.1400 232° Southwest 168 193 17,700 341 Climbing Indianapolis Center
09:47AM 38.4078 -85.1900 234° Southwest 170 196 17,700 98 Level Indianapolis Center
09:48AM 38.3753 -85.2456 233° Southwest 193 222 17,900 97 Climbing Indianapolis Center
09:49AM 38.3414 -85.3014 232° Southwest 195 224 17,900 49 Level Indianapolis Center
09:50AM 38.3089 -85.3583 234° Southwest 195 224 18,000  Climbing Indianapolis Center
09:51AM 38.2678 -85.4281 233° Southwest 197 227 17,900 -49 Descending Indianapolis Center
09:52AM 38.2322 -85.4867 232° Southwest 203 234 17,900  Level Indianapolis Center
09:53AM 38.1967 -85.5439 232° Southwest 204 235 17,900  Level Indianapolis Center
09:54AM 38.1608 -85.6011 231° Southwest 204 235 17,900  Level Indianapolis Center
09:55AM 38.1256 -85.6586 232° Southwest 204 235 17,900  Level Indianapolis Center
09:56AM 38.0922 -85.7153 233° Southwest 204 235 17,900  Level Indianapolis Center
09:57AM 38.0536 -85.7725 229° Southwest 204 235 17,900  Level Indianapolis Center
09:58AM 38.0203 -85.8303 234° Southwest 205 236 17,900  Level Indianapolis Center
09:59AM 37.9850 -85.8875 232° Southwest 205 236 17,900  Level Indianapolis Center
10:00AM 37.9511 -85.9447 233° Southwest 205 236 17,900  Level Indianapolis Center
10:01AM 37.9164 -86.0011 232° Southwest 204 235 17,900  Level Indianapolis Center
10:02AM 37.8747 -86.0692 232° Southwest 204 235 17,900  Level Indianapolis Center
10:03AM 37.8386 -86.1256 231° Southwest 204 235 17,900  Level Indianapolis Center
10:04AM 37.8044 -86.1825 233° Southwest 204 235 17,900  Level Indianapolis Center
10:05AM 37.7717 -86.2339 231° Southwest 204 235 17,900  Level Indianapolis Center
10:06AM 37.7303 -86.2997 232° Southwest 204 235 17,900  Level Indianapolis Center
10:07AM 37.6958 -86.3567 233° Southwest 204 235 17,900  Level Indianapolis Center
10:08AM 37.6594 -86.4133 231° Southwest 204 235 17,900  Level Indianapolis Center
10:09AM 37.6239 -86.4697 231° Southwest 204 235 17,900  Level Indianapolis Center
10:10AM 37.5889 -86.5264 232° Southwest 204 235 17,900  Level Indianapolis Center
10:11AM 37.5550 -86.5792 231° Southwest 204 235 17,900  Level Indianapolis Center
10:12AM 37.5172 -86.6411 232° Southwest 204 235 17,900  Level Indianapolis Center
10:13AM 37.4811 -86.6981 231° Southwest 205 236 17,900  Level Indianapolis Center
10:14AM 37.4450 -86.7533 231° Southwest 205 236 17,900  Level Indianapolis Center
10:15AM 37.4100 -86.8119 233° Southwest 205 236 17,900  Level Indianapolis Center
10:16AM 37.3728 -86.8675 230° Southwest 205 236 17,900  Level Memphis Center
10:17AM 37.3375 -86.9244 232° Southwest 205 236 17,900  Level Memphis Center
10:18AM 37.3017 -86.9797 231° Southwest 204 235 17,900  Level Memphis Center
10:19AM 37.2661 -87.0364 232° Southwest 204 235 17,900  Level Memphis Center
10:20AM 37.2303 -87.0919 231° Southwest 204 235 17,900  Level Memphis Center
10:21AM 37.1947 -87.1464 231° Southwest 203 234 17,900  Level Memphis Center
10:22AM 37.1600 -87.2019 232° Southwest 203 234 17,900  Level Memphis Center
10:23AM 37.1247 -87.2569 231° Southwest 203 234 17,900  Level Memphis Center
10:24AM 37.0836 -87.3214 231° Southwest 203 234 17,900  Level Memphis Center
10:25AM 37.0472 -87.3758 230° Southwest 203 234 17,900  Level Memphis Center
10:26AM 37.0117 -87.4292 230° Southwest 202 232 17,900  Level Memphis Center
10:27AM 36.9742 -87.4825 229° Southwest 202 232 17,900  Level Memphis Center
10:29AM 36.9356 -87.5358 228° Southwest 203 234 17,900  Level Memphis Center
10:30AM 36.9000 -87.5889 230° Southwest 203 234 17,900  Level Memphis Center
10:31AM 36.8622 -87.6419 228° Southwest 202 232 17,900  Level Memphis Center
10:32AM 36.8256 -87.6961 230° Southwest 202 232 17,900  Level Memphis Center
10:33AM 36.7800 -87.7575 227° Southwest 203 234 17,900  Level Memphis Center
10:34AM 36.7439 -87.8103 230° Southwest 203 234 17,900  Level Memphis Center
10:35AM 36.7067 -87.8633 229° Southwest 203 234 17,900  Level Memphis Center
10:36AM 36.6681 -87.9158 227° Southwest 203 234 17,900  Level Memphis Center
10:37AM 36.6319 -87.9703 230° Southwest 203 234 17,900  Level Memphis Center
10:38AM 36.5931 -88.0228 227° Southwest 203 234 17,900  Level Memphis Center
10:39AM 36.5558 -88.0761 229° Southwest 203 234 17,900  Level Memphis Center
10:40AM 36.5169 -88.1328 230° Southwest 203 234 17,900  Level Memphis Center
10:41AM 36.4775 -88.1853 227° Southwest 203 234 17,900  Level Memphis Center
10:42AM 36.4406 -88.2383 229° Southwest 203 234 17,900  Level Memphis Center
10:43AM 36.4014 -88.2919 228° Southwest 204 235 17,900  Level Memphis Center
10:44AM 36.3644 -88.3447 229° Southwest 204 235 17,900  Level Memphis Center
10:45AM 36.3189 -88.4081 228° Southwest 204 235 17,900  Level Memphis Center
10:46AM 36.2803 -88.4619 228° Southwest 204 235 17,900  Level Memphis Center
10:47AM 36.2417 -88.5150 228° Southwest 205 236 17,900  Level Memphis Center
10:48AM 36.2033 -88.5672 228° Southwest 205 236 17,900  Level Memphis Center
10:49AM 36.1658 -88.6211 229° Southwest 205 236 17,900  Level Memphis Center
10:50AM 36.1272 -88.6739 228° Southwest 205 236 17,900  Level Memphis Center
10:51AM 36.0897 -88.7264 229° Southwest 205 236 17,900  Level Memphis Center
10:52AM 36.0519 -88.7792 228° Southwest 205 236 17,900  Level Memphis Center
10:53AM 36.0064 -88.8419 228° Southwest 205 236 17,900  Level Memphis Center
10:54AM 35.9686 -88.8944 228° Southwest 205 236 17,900  Level Memphis Center
10:55AM 35.9297 -88.9469 228° Southwest 205 236 17,900  Level Memphis Center
10:56AM 35.8919 -88.9994 228° Southwest 205 236 17,900  Level Memphis Center
10:57AM 35.8536 -89.0517 228° Southwest 205 236 17,900  Level Memphis Center
10:58AM 35.8178 -89.1058 231° Southwest 205 236 17,900  Level Memphis Center
10:59AM 35.7897 -89.1669 241° Southwest 204 235 17,900  Level Memphis Center
11:00AM 35.7617 -89.2278 240° Southwest 204 235 17,900  Level Memphis Center
11:01AM 35.7294 -89.2839 235° Southwest 204 235 17,900  Level Memphis Center
11:03AM 35.6844 -89.3397 225° Southwest 206 237 17,900  Level Memphis Center
11:04AM 35.6486 -89.3939 231° Southwest 206 237 17,900  Level Memphis Center
11:05AM 35.6075 -89.4428 224° Southwest 206 237 17,900  Level Memphis Center
11:06AM 35.5622 -89.5056 228° Southwest 206 237 17,900  Level Memphis Center
11:07AM 35.5239 -89.5572 228° Southwest 206 237 17,900  Level Memphis Center
11:08AM 35.4842 -89.6072 226° Southwest 206 237 17,900  Level Memphis Center
11:09AM 35.4472 -89.6592 229° Southwest 205 236 17,900  Level Memphis Center
11:10AM 35.4075 -89.7086 225° Southwest 205 236 17,900  Level Memphis Center
11:11AM 35.3694 -89.7606 228° Southwest 205 236 17,900  Level Memphis Center
11:12AM 35.3297 -89.8114 226° Southwest 205 236 17,900  Level Memphis Center
11:13AM 35.2836 -89.8717 227° Southwest 205 236 17,900  Level Memphis Center
11:14AM 35.2456 -89.9239 228° Southwest 205 236 17,900  Level Memphis Center
11:15AM 35.2067 -89.9747 227° Southwest 205 236 17,900  Level Memphis Center
11:16AM 35.1672 -90.0261 227° Southwest 206 237 17,900  Level Memphis Center
11:17AM 35.1283 -90.0767 227° Southwest 206 237 17,900  Level Memphis Center
11:18AM 35.0894 -90.1278 227° Southwest 206 237 17,900  Level Memphis Center
11:19AM 35.0425 -90.1889 227° Southwest 206 237 17,900  Level Memphis Center
11:20AM 35.0025 -90.2400 226° Southwest 206 237 17,900  Level Memphis Center
11:21AM 34.9633 -90.2922 228° Southwest 206 237 17,900  Level Memphis Center
11:22AM 34.9236 -90.3433 227° Southwest 206 237 17,900  Level Memphis Center
11:23AM 34.8853 -90.3964 229° Southwest 207 238 17,900  Level Memphis Center
11:24AM 34.8547 -90.4556 238° Southwest 207 238 17,900  Level Memphis Center
11:25AM 34.8178 -90.5261 237° Southwest 207 238 17,900  Level Memphis Center
11:26AM 34.7875 -90.5839 237° Southwest 207 238 17,900  Level Memphis Center
11:27AM 34.7561 -90.6436 237° Southwest 207 238 17,900  Level Memphis Center
11:28AM 34.7244 -90.7019 237° Southwest 207 238 17,900  Level Memphis Center
11:29AM 34.6856 -90.7528 227° Southwest 207 238 17,900  Level Memphis Center
11:30AM 34.6492 -90.8064 230° Southwest 207 238 17,900  Level Memphis Center
11:31AM 34.6033 -90.8708 229° Southwest 207 238 17,900  Level Memphis Center
11:32AM 34.5675 -90.9239 231° Southwest 207 238 17,900  Level Memphis Center
11:33AM 34.5306 -90.9761 229° Southwest 207 238 17,900  Level Memphis Center
11:34AM 34.4950 -91.0294 231° Southwest 206 237 17,900  Level Memphis Center
11:35AM 34.4578 -91.0819 229° Southwest 206 237 17,900  Level Memphis Center
11:36AM 34.4214 -91.1350 230° Southwest 206 237 17,900  Level Memphis Center
11:37AM 34.3847 -91.1883 230° Southwest 206 237 17,900  Level Memphis Center
11:39AM 34.3397 -91.2525 230° Southwest 206 237 17,900  Level Memphis Center
11:40AM 34.3033 -91.3053 230° Southwest 206 237 17,900  Level Memphis Center
11:41AM 34.2658 -91.3583 229° Southwest 206 237 17,900  Level Memphis Center
11:42AM 34.2297 -91.4114 231° Southwest 206 237 17,900  Level Memphis Center
11:43AM 34.1917 -91.4642 229° Southwest 206 237 17,900  Level Memphis Center
11:44AM 34.1558 -91.5181 231° Southwest 206 237 17,900  Level Memphis Center
11:45AM 34.1181 -91.5697 229° Southwest 206 237 17,900  Level Memphis Center
11:46AM 34.0739 -91.6344 231° Southwest 207 238 17,900  Level Memphis Center
11:47AM 34.0347 -91.6861 228° Southwest 207 238 17,900  Level Memphis Center
11:48AM 34.0019 -91.7353 231° Southwest 207 238 17,900  Level Memphis Center
11:49AM 33.9567 -91.7992 229° Southwest 207 238 17,900  Level Memphis Center
11:50AM 33.9192 -91.8528 230° Southwest 207 238 17,900  Level Memphis Center
11:51AM 33.8811 -91.9042 228° Southwest 208 239 17,900  Level Memphis Center
11:52AM 33.8433 -91.9589 230° Southwest 208 239 17,900  Level Memphis Center
11:53AM 33.8058 -92.0114 229° Southwest 208 239 17,900  Level Memphis Center
11:54AM 33.7683 -92.0639 229° Southwest 208 239 17,900  Level Memphis Center
11:55AM 33.7300 -92.1169 229° Southwest 208 239 17,900  Level Memphis Center
11:56AM 33.6850 -92.1817 230° Southwest 208 239 17,900  Level Memphis Center
11:57AM 33.6453 -92.2356 228° Southwest 210 242 17,900  Level Memphis Center
11:58AM 33.6083 -92.2881 230° Southwest 210 242 17,900  Level Memphis Center
11:59AM 33.5703 -92.3414 229° Southwest 210 242 17,900  Level Memphis Center
12:00PM 33.5317 -92.3956 229° Southwest 210 242 17,900  Level Memphis Center
12:01PM 33.4928 -92.4481 228° Southwest 210 242 17,900 -146 Level Memphis Center
12:02PM 33.4539 -92.5022 229° Southwest 211 243 17,600 -532 Descending Memphis Center
12:03PM 33.4033 -92.5725 229° Southwest 226 260 16,800 -774 Descending Memphis Center
12:04PM 33.3603 -92.6331 230° Southwest 234 269 16,000 -774 Descending Memphis Center
12:05PM 33.3178 -92.6911 229° Southwest 234 269 15,200 -785 Descending Memphis Center
12:06PM 33.2686 -92.7586 229° Southwest 232 267 14,300 -785 Descending Fort Worth Center
12:07PM 33.2289 -92.8139 229° Southwest 224 258 13,500 -726 Descending Fort Worth Center
12:09PM 33.1897 -92.8678 229° Southwest 217 250 12,800 -774 Descending Fort Worth Center
12:10PM 33.1525 -92.9203 230° Southwest 207 238 11,900 -694 Descending Fort Worth Center
12:11PM 33.1075 -92.9778 227° Southwest 211 243 11,400 -579 Descending Fort Worth Center
12:11PM 33.0731 -93.0258 229° Southwest 207 238 10,800 -554 Descending Fort Worth Center
12:12PM 33.0747 -93.0228 57° Northeast 209 241 10,800 -700 Level Fort Worth Center
12:12PM 33.0342 -93.0764 228° Southwest 207 238 10,100 -677 Descending Fort Worth Center
12:13PM 33.0353 -93.0761 12° North 210 242 10,100 -689 Level Fort Worth Center
12:13PM 32.9958 -93.1297 229° Southwest 210 242 9,400 -787 Descending Fort Worth Center
12:14PM 32.9911 -93.1394 240° Southwest 207 238 9,300 -689 Descending Fort Worth Center
12:14PM 32.9617 -93.1847 232° Southwest 204 235 8,700 -677 Descending Fort Worth Center
12:15PM 32.9561 -93.1922 229° Southwest 205 236 8,600 -885 Descending Fort Worth Center
12:15PM 32.9292 -93.2372 235° Southwest 202 232 7,800 -871 Descending Fort Worth Center
12:16PM 32.9256 -93.2486 249° West 203 234 7,700 -700 Descending Fort Worth Center
12:16PM 32.9039 -93.2992 243° Southwest 204 235 7,100 -677 Descending Fort Worth Center
12:17PM 32.9006 -93.3100 250° West 205 236 7,000 -787 Descending Fort Worth Center
12:18PM 32.8806 -93.3631 246° West 198 228 6,300 -774 Descending Fort Worth Center
12:18PM 32.8772 -93.3689 236° Southwest 202 232 6,200 -885 Descending Fort Worth Center
12:19PM 32.8547 -93.4200 242° Southwest 196 226 5,400 -871 Descending Fort Worth Center
12:19PM 32.8522 -93.4267 246° West 199 229 5,300 -700 Descending Fort Worth Center
12:20PM 32.8331 -93.4764 245° Southwest 192 221 4,700 -968 Descending Fort Worth Center
12:20PM 32.8250 -93.4944 242° Southwest 193 222 4,300 -787 Descending Fort Worth Center
12:21PM 32.8092 -93.5328 244° Southwest 188 216 3,900 -677 Descending Fort Worth Center
12:21PM 32.8014 -93.5500 242° Southwest 192 221 3,600 -885 Descending Fort Worth Center
12:22PM 32.7856 -93.5892 244° Southwest 189 217 3,000 -774 Descending Fort Worth Center
12:22PM 32.7761 -93.6036 232° Southwest 190 219 2,800 -787 Descending Fort Worth Center
12:23PM 32.7503 -93.6294 220° Southwest 176 203 2,200 -871 Descending Fort Worth Center
12:23PM 32.7386 -93.6428 224° Southwest 181 208 1,900 -200 Descending Fort Worth Center
12:24PM 32.7150 -93.6744 228° Southwest 173 199 2,000 97 Climbing Fort Worth Center
12:24PM 32.7036 -93.6889 227° Southwest 167 192 2,000  Level Fort Worth Center
12:25PM 32.6861 -93.7139 230° Southwest 151 174 2,000 -97 Level Fort Worth Center
12:25PM 32.6756 -93.7258 224° Southwest 156 180 1,900 -590 Descending Fort Worth Center
12:26PM 32.6522 -93.7439 213° Southwest 158 182 1,400 -581 Descending Fort Worth Center
12:26PM 32.6353 -93.7533 205° Southwest 157 181 1,300 -200 Descending Fort Worth Center
12:27PM 32.6181 -93.7664 213° Southwest 140 161 1,200 -194 Descending Fort Worth Center
12:27PM 32.6019 -93.7717 195° South 133 153 1,100 -269 Descending Fort Worth Center
12:28PM 32.5789 -93.7794 196° South 113 130 900 -484 Descending Fort Worth Center
12:28PM 32.5686 -93.7722 149° Southeast 120 138 600 -492 Descending Fort Worth Center
12:29PM 32.5528 -93.7594 146° Southeast 117 135 400 -393 Descending Fort Worth Center
12:29PM 32.5458 -93.7494 129° Southeast 118 136 200 -500 Descending Fort Worth Center